sensor_id;sensor_type;location;lat;lon;timestamp;temperature;humidity
68248;SHT30;55064;49.636;12.164;2023-06-14T00:13:50;14.44;61.57
68248;SHT30;55064;49.636;12.164;2023-06-14T00:22:49;14.38;61.69
68248;SHT30;55064;49.636;12.164;2023-06-14T00:25:31;14.40;61.71
68248;SHT30;55064;49.636;12.164;2023-06-14T00:31:10;14.38;62.18
68248;SHT30;55064;49.636;12.164;2023-06-14T00:33:35;14.38;62.00
68248;SHT30;55064;49.636;12.164;2023-06-14T00:36:00;14.36;62.43
68248;SHT30;55064;49.636;12.164;2023-06-14T00:38:26;14.34;62.49
68248;SHT30;55064;49.636;12.164;2023-06-14T00:40:53;14.30;62.64
68248;SHT30;55064;49.636;12.164;2023-06-14T00:43:23;14.33;62.07
68248;SHT30;55064;49.636;12.164;2023-06-14T00:45:49;14.27;63.04
68248;SHT30;55064;49.636;12.164;2023-06-14T00:48:16;14.16;63.63
68248;SHT30;55064;49.636;12.164;2023-06-14T00:50:42;14.06;64.05
68248;SHT30;55064;49.636;12.164;2023-06-14T00:53:14;14.06;63.68
68248;SHT30;55064;49.636;12.164;2023-06-14T00:55:40;13.89;64.97
68248;SHT30;55064;49.636;12.164;2023-06-14T00:58:06;14.00;64.67
68248;SHT30;55064;49.636;12.164;2023-06-14T01:00:31;13.99;64.19
68248;SHT30;55064;49.636;12.164;2023-06-14T01:02:57;13.99;64.42
68248;SHT30;55064;49.636;12.164;2023-06-14T01:05:23;13.95;64.70
68248;SHT30;55064;49.636;12.164;2023-06-14T01:15:31;13.83;65.82
68248;SHT30;55064;49.636;12.164;2023-06-14T01:17:57;13.79;66.26
68248;SHT30;55064;49.636;12.164;2023-06-14T01:20:29;13.82;65.03
68248;SHT30;55064;49.636;12.164;2023-06-14T01:22:57;13.90;65.34
68248;SHT30;55064;49.636;12.164;2023-06-14T01:25:22;13.79;65.54
68248;SHT30;55064;49.636;12.164;2023-06-14T01:27:49;13.76;66.03
68248;SHT30;55064;49.636;12.164;2023-06-14T01:30:16;13.79;65.75
68248;SHT30;55064;49.636;12.164;2023-06-14T01:32:42;13.95;64.96
68248;SHT30;55064;49.636;12.164;2023-06-14T01:35:08;13.86;65.91
68248;SHT30;55064;49.636;12.164;2023-06-14T01:37:33;13.86;65.02
68248;SHT30;55064;49.636;12.164;2023-06-14T01:40:03;13.89;65.14
68248;SHT30;55064;49.636;12.164;2023-06-14T01:42:33;13.85;65.60
68248;SHT30;55064;49.636;12.164;2023-06-14T01:44:59;13.87;65.04
68248;SHT30;55064;49.636;12.164;2023-06-14T01:47:25;13.87;65.28
68248;SHT30;55064;49.636;12.164;2023-06-14T01:49:51;13.90;64.75
68248;SHT30;55064;49.636;12.164;2023-06-14T01:52:19;13.87;64.93
68248;SHT30;55064;49.636;12.164;2023-06-14T01:54:45;13.82;65.64
68248;SHT30;55064;49.636;12.164;2023-06-14T01:57:11;13.75;66.20
68248;SHT30;55064;49.636;12.164;2023-06-14T01:59:39;13.45;67.63
68248;SHT30;55064;49.636;12.164;2023-06-14T02:02:05;13.14;68.93
68248;SHT30;55064;49.636;12.164;2023-06-14T02:04:30;13.13;68.88
68248;SHT30;55064;49.636;12.164;2023-06-14T02:06:55;13.13;68.65
68248;SHT30;55064;49.636;12.164;2023-06-14T02:09:21;13.06;69.10
68248;SHT30;55064;49.636;12.164;2023-06-14T02:11:46;13.20;68.48
68248;SHT30;55064;49.636;12.164;2023-06-14T02:14:11;13.24;68.60
68248;SHT30;55064;49.636;12.164;2023-06-14T02:16:37;13.27;68.39
68248;SHT30;55064;49.636;12.164;2023-06-14T02:19:06;13.28;68.07
68248;SHT30;55064;49.636;12.164;2023-06-14T02:21:31;13.45;67.46
68248;SHT30;55064;49.636;12.164;2023-06-14T02:23:57;13.50;68.01
68248;SHT30;55064;49.636;12.164;2023-06-14T02:26:23;13.37;68.25
68248;SHT30;55064;49.636;12.164;2023-06-14T02:28:51;13.41;67.56
68248;SHT30;55064;49.636;12.164;2023-06-14T02:31:22;13.48;68.07
68248;SHT30;55064;49.636;12.164;2023-06-14T02:33:49;13.43;68.18
68248;SHT30;55064;49.636;12.164;2023-06-14T02:36:17;13.19;70.24
68248;SHT30;55064;49.636;12.164;2023-06-14T02:38:43;13.21;69.51
68248;SHT30;55064;49.636;12.164;2023-06-14T02:41:09;13.28;69.27
68248;SHT30;55064;49.636;12.164;2023-06-14T02:43:37;13.26;69.70
68248;SHT30;55064;49.636;12.164;2023-06-14T02:46:05;13.21;69.10
68248;SHT30;55064;49.636;12.164;2023-06-14T02:48:30;13.28;68.66
68248;SHT30;55064;49.636;12.164;2023-06-14T02:50:55;13.28;68.50
68248;SHT30;55064;49.636;12.164;2023-06-14T02:53:22;13.31;68.30
68248;SHT30;55064;49.636;12.164;2023-06-14T02:55:47;13.31;68.53
68248;SHT30;55064;49.636;12.164;2023-06-14T02:58:13;13.34;68.51
68248;SHT30;55064;49.636;12.164;2023-06-14T03:00:39;13.36;68.53
68248;SHT30;55064;49.636;12.164;2023-06-14T03:03:06;13.34;68.52
68248;SHT30;55064;49.636;12.164;2023-06-14T03:05:38;13.38;68.55
68248;SHT30;55064;49.636;12.164;2023-06-14T03:08:06;13.11;70.57
68248;SHT30;55064;49.636;12.164;2023-06-14T03:10:32;12.92;71.29
68248;SHT30;55064;49.636;12.164;2023-06-14T03:13:00;12.78;72.12
68248;SHT30;55064;49.636;12.164;2023-06-14T03:15:27;12.68;72.73
68248;SHT30;55064;49.636;12.164;2023-06-14T03:18:03;12.61;73.38
68248;SHT30;55064;49.636;12.164;2023-06-14T03:20:31;12.66;72.15
68248;SHT30;55064;49.636;12.164;2023-06-14T03:22:59;12.75;71.89
68248;SHT30;55064;49.636;12.164;2023-06-14T03:25:25;12.81;73.08
68248;SHT30;55064;49.636;12.164;2023-06-14T03:27:51;12.83;72.87
68248;SHT30;55064;49.636;12.164;2023-06-14T03:30:16;12.86;72.59
68248;SHT30;55064;49.636;12.164;2023-06-14T03:32:43;12.72;74.19
68248;SHT30;55064;49.636;12.164;2023-06-14T03:35:08;12.65;74.29
68248;SHT30;55064;49.636;12.164;2023-06-14T03:37:35;12.51;75.05
68248;SHT30;55064;49.636;12.164;2023-06-14T03:40:00;12.51;75.63
68248;SHT30;55064;49.636;12.164;2023-06-14T03:42:27;12.54;75.17
68248;SHT30;55064;49.636;12.164;2023-06-14T03:44:53;12.48;75.77
68248;SHT30;55064;49.636;12.164;2023-06-14T03:47:18;12.41;75.70
68248;SHT30;55064;49.636;12.164;2023-06-14T03:49:45;12.49;76.28
68248;SHT30;55064;49.636;12.164;2023-06-14T03:52:11;12.55;76.41
68248;SHT30;55064;49.636;12.164;2023-06-14T03:54:36;12.65;75.68
68248;SHT30;55064;49.636;12.164;2023-06-14T03:57:04;12.92;75.40
68248;SHT30;55064;49.636;12.164;2023-06-14T03:59:32;13.79;73.00
68248;SHT30;55064;49.636;12.164;2023-06-14T04:01:57;14.37;71.13
68248;SHT30;55064;49.636;12.164;2023-06-14T04:04:22;14.79;69.26
68248;SHT30;55064;49.636;12.164;2023-06-14T04:06:54;15.68;67.45
68248;SHT30;55064;49.636;12.164;2023-06-14T04:09:19;16.22;65.39
68248;SHT30;55064;49.636;12.164;2023-06-14T04:11:45;16.46;63.38
68248;SHT30;55064;49.636;12.164;2023-06-14T04:14:11;16.58;64.10
68248;SHT30;55064;49.636;12.164;2023-06-14T04:16:36;17.04;62.31
68248;SHT30;55064;49.636;12.164;2023-06-14T04:19:03;17.54;61.64
68248;SHT30;55064;49.636;12.164;2023-06-14T04:21:28;17.87;60.43
68248;SHT30;55064;49.636;12.164;2023-06-14T04:23:55;17.95;59.80
68248;SHT30;55064;49.636;12.164;2023-06-14T04:26:25;18.01;60.29
68248;SHT30;55064;49.636;12.164;2023-06-14T04:28:54;17.73;60.23
68248;SHT30;55064;49.636;12.164;2023-06-14T04:31:23;18.26;59.53
68248;SHT30;55064;49.636;12.164;2023-06-14T04:33:51;18.40;58.95
68248;SHT30;55064;49.636;12.164;2023-06-14T04:36:20;18.44;58.65
68248;SHT30;55064;49.636;12.164;2023-06-14T04:38:45;18.77;58.31
68248;SHT30;55064;49.636;12.164;2023-06-14T04:41:11;18.68;58.21
68248;SHT30;55064;49.636;12.164;2023-06-14T04:43:37;18.90;57.64
68248;SHT30;55064;49.636;12.164;2023-06-14T04:46:09;19.04;56.91
68248;SHT30;55064;49.636;12.164;2023-06-14T04:48:46;19.70;55.50
68248;SHT30;55064;49.636;12.164;2023-06-14T04:51:21;19.77;55.73
68248;SHT30;55064;49.636;12.164;2023-06-14T04:57:16;19.95;55.34
68248;SHT30;55064;49.636;12.164;2023-06-14T05:00:16;20.04;54.98
68248;SHT30;55064;49.636;12.164;2023-06-14T05:05:53;20.46;53.72
68248;SHT30;55064;49.636;12.164;2023-06-14T05:11:34;21.10;52.82
68248;SHT30;55064;49.636;12.164;2023-06-14T05:14:04;21.17;52.47
68248;SHT30;55064;49.636;12.164;2023-06-14T05:16:37;21.08;52.43
68248;SHT30;55064;49.636;12.164;2023-06-14T05:19:03;20.97;52.42
68248;SHT30;55064;49.636;12.164;2023-06-14T05:25:06;20.14;55.41
68248;SHT30;55064;49.636;12.164;2023-06-14T05:27:31;18.57;58.61
68248;SHT30;55064;49.636;12.164;2023-06-14T05:29:57;17.84;61.57
68248;SHT30;55064;49.636;12.164;2023-06-14T05:32:26;17.26;63.42
68248;SHT30;55064;49.636;12.164;2023-06-14T05:34:51;16.88;65.12
68248;SHT30;55064;49.636;12.164;2023-06-14T05:37:17;16.58;65.36
68248;SHT30;55064;49.636;12.164;2023-06-14T05:39:45;16.54;66.56
68248;SHT30;55064;49.636;12.164;2023-06-14T05:42:10;16.13;67.17
68248;SHT30;55064;49.636;12.164;2023-06-14T05:44:36;16.10;67.54
68248;SHT30;55064;49.636;12.164;2023-06-14T05:47:01;16.02;67.88
68248;SHT30;55064;49.636;12.164;2023-06-14T05:49:30;16.06;67.68
68248;SHT30;55064;49.636;12.164;2023-06-14T05:51:56;15.86;68.26
68248;SHT30;55064;49.636;12.164;2023-06-14T05:54:21;15.94;68.26
68248;SHT30;55064;49.636;12.164;2023-06-14T05:56:46;16.09;68.28
68248;SHT30;55064;49.636;12.164;2023-06-14T05:59:12;16.03;68.34
68248;SHT30;55064;49.636;12.164;2023-06-14T06:01:37;15.89;68.55
68248;SHT30;55064;49.636;12.164;2023-06-14T06:04:05;16.06;67.74
68248;SHT30;55064;49.636;12.164;2023-06-14T06:06:32;16.09;65.37
68248;SHT30;55064;49.636;12.164;2023-06-14T06:09:00;16.13;66.46
68248;SHT30;55064;49.636;12.164;2023-06-14T06:11:25;16.13;65.19
68248;SHT30;55064;49.636;12.164;2023-06-14T06:13:50;16.16;65.36
68248;SHT30;55064;49.636;12.164;2023-06-14T06:16:16;16.27;65.35
68248;SHT30;55064;49.636;12.164;2023-06-14T06:18:41;16.46;64.57
68248;SHT30;55064;49.636;12.164;2023-06-14T06:21:07;16.58;63.58
68248;SHT30;55064;49.636;12.164;2023-06-14T06:23:33;16.82;63.82
68248;SHT30;55064;49.636;12.164;2023-06-14T06:26:01;16.82;63.27
68248;SHT30;55064;49.636;12.164;2023-06-14T06:28:26;16.99;62.97
68248;SHT30;55064;49.636;12.164;2023-06-14T06:30:51;16.91;63.08
68248;SHT30;55064;49.636;12.164;2023-06-14T06:33:20;16.68;62.69
68248;SHT30;55064;49.636;12.164;2023-06-14T06:35:45;16.71;63.61
68248;SHT30;55064;49.636;12.164;2023-06-14T06:38:11;16.63;63.14
68248;SHT30;55064;49.636;12.164;2023-06-14T06:40:36;16.70;63.46
68248;SHT30;55064;49.636;12.164;2023-06-14T06:43:04;16.87;62.86
68248;SHT30;55064;49.636;12.164;2023-06-14T06:45:30;16.95;62.33
68248;SHT30;55064;49.636;12.164;2023-06-14T06:47:56;17.05;62.24
68248;SHT30;55064;49.636;12.164;2023-06-14T06:50:22;16.99;62.27
68248;SHT30;55064;49.636;12.164;2023-06-14T06:52:48;17.18;62.31
68248;SHT30;55064;49.636;12.164;2023-06-14T06:55:18;17.30;61.97
68248;SHT30;55064;49.636;12.164;2023-06-14T06:57:43;17.50;61.70
68248;SHT30;55064;49.636;12.164;2023-06-14T07:00:09;17.29;60.92
68248;SHT30;55064;49.636;12.164;2023-06-14T07:02:35;17.30;61.66
68248;SHT30;55064;49.636;12.164;2023-06-14T07:05:05;17.25;60.22
68248;SHT30;55064;49.636;12.164;2023-06-14T07:07:34;17.14;60.36
68248;SHT30;55064;49.636;12.164;2023-06-14T07:10:02;17.12;60.02
68248;SHT30;55064;49.636;12.164;2023-06-14T07:12:30;17.18;60.15
68248;SHT30;55064;49.636;12.164;2023-06-14T07:14:57;17.34;60.02
68248;SHT30;55064;49.636;12.164;2023-06-14T07:17:25;17.53;59.35
68248;SHT30;55064;49.636;12.164;2023-06-14T07:19:52;17.53;58.49
68248;SHT30;55064;49.636;12.164;2023-06-14T07:22:20;17.77;58.72
68248;SHT30;55064;49.636;12.164;2023-06-14T07:24:45;17.91;58.19
68248;SHT30;55064;49.636;12.164;2023-06-14T07:27:11;17.71;58.18
68248;SHT30;55064;49.636;12.164;2023-06-14T07:29:39;17.71;58.50
68248;SHT30;55064;49.636;12.164;2023-06-14T07:32:04;17.55;58.52
68248;SHT30;55064;49.636;12.164;2023-06-14T07:34:30;17.27;59.48
68248;SHT30;55064;49.636;12.164;2023-06-14T07:36:55;17.60;58.56
68248;SHT30;55064;49.636;12.164;2023-06-14T07:39:21;17.49;58.07
68248;SHT30;55064;49.636;12.164;2023-06-14T07:41:46;17.78;57.63
68248;SHT30;55064;49.636;12.164;2023-06-14T07:44:11;17.84;57.85
68248;SHT30;55064;49.636;12.164;2023-06-14T07:46:37;17.91;58.17
68248;SHT30;55064;49.636;12.164;2023-06-14T07:49:03;17.75;57.63
68248;SHT30;55064;49.636;12.164;2023-06-14T07:51:32;17.69;57.99
68248;SHT30;55064;49.636;12.164;2023-06-14T07:54:01;17.85;57.69
68248;SHT30;55064;49.636;12.164;2023-06-14T07:56:27;17.87;57.11
68248;SHT30;55064;49.636;12.164;2023-06-14T07:58:53;18.06;57.44
68248;SHT30;55064;49.636;12.164;2023-06-14T08:01:21;18.12;57.24
68248;SHT30;55064;49.636;12.164;2023-06-14T08:03:51;18.49;57.47
68248;SHT30;55064;49.636;12.164;2023-06-14T08:06:17;18.12;57.02
68248;SHT30;55064;49.636;12.164;2023-06-14T08:08:42;18.22;56.82
68248;SHT30;55064;49.636;12.164;2023-06-14T08:11:07;18.52;56.71
68248;SHT30;55064;49.636;12.164;2023-06-14T08:13:33;18.42;56.37
68248;SHT30;55064;49.636;12.164;2023-06-14T08:15:59;18.09;57.55
68248;SHT30;55064;49.636;12.164;2023-06-14T08:18:26;18.21;57.62
68248;SHT30;55064;49.636;12.164;2023-06-14T08:20:52;18.88;55.78
68248;SHT30;55064;49.636;12.164;2023-06-14T08:23:20;18.90;55.71
68248;SHT30;55064;49.636;12.164;2023-06-14T08:25:46;18.87;56.39
68248;SHT30;55064;49.636;12.164;2023-06-14T08:28:12;18.70;56.01
68248;SHT30;55064;49.636;12.164;2023-06-14T08:30:37;19.15;54.15
68248;SHT30;55064;49.636;12.164;2023-06-14T08:33:03;18.94;54.30
68248;SHT30;55064;49.636;12.164;2023-06-14T08:35:32;18.95;54.37
68248;SHT30;55064;49.636;12.164;2023-06-14T08:37:57;18.81;53.97
68248;SHT30;55064;49.636;12.164;2023-06-14T08:40:23;19.36;54.05
68248;SHT30;55064;49.636;12.164;2023-06-14T08:42:54;19.18;53.76
68248;SHT30;55064;49.636;12.164;2023-06-14T08:45:21;19.63;53.66
68248;SHT30;55064;49.636;12.164;2023-06-14T08:47:51;19.80;53.65
68248;SHT30;55064;49.636;12.164;2023-06-14T08:50:24;19.90;52.26
68248;SHT30;55064;49.636;12.164;2023-06-14T08:52:54;20.21;51.55
68248;SHT30;55064;49.636;12.164;2023-06-14T08:55:23;19.92;51.27
68248;SHT30;55064;49.636;12.164;2023-06-14T08:57:57;19.45;52.56
68248;SHT30;55064;49.636;12.164;2023-06-14T09:00:24;19.53;52.54
68248;SHT30;55064;49.636;12.164;2023-06-14T09:02:51;19.87;52.21
68248;SHT30;55064;49.636;12.164;2023-06-14T09:05:26;20.11;50.46
68248;SHT30;55064;49.636;12.164;2023-06-14T09:07:54;20.42;49.27
68248;SHT30;55064;49.636;12.164;2023-06-14T09:10:21;20.15;49.72
68248;SHT30;55064;49.636;12.164;2023-06-14T09:12:51;19.98;51.01
68248;SHT30;55064;49.636;12.164;2023-06-14T09:15:17;20.09;51.30
68248;SHT30;55064;49.636;12.164;2023-06-14T09:17:45;20.25;49.35
68248;SHT30;55064;49.636;12.164;2023-06-14T09:20:11;19.01;52.98
68248;SHT30;55064;49.636;12.164;2023-06-14T09:22:39;19.94;51.10
68248;SHT30;55064;49.636;12.164;2023-06-14T09:25:05;20.90;50.09
68248;SHT30;55064;49.636;12.164;2023-06-14T09:27:32;21.10;48.43
68248;SHT30;55064;49.636;12.164;2023-06-14T09:30:00;21.15;47.74
68248;SHT30;55064;49.636;12.164;2023-06-14T09:32:27;20.49;48.49
68248;SHT30;55064;49.636;12.164;2023-06-14T09:34:55;21.21;48.77
68248;SHT30;55064;49.636;12.164;2023-06-14T09:37:33;20.67;46.37
68248;SHT30;55064;49.636;12.164;2023-06-14T09:39:59;20.15;47.91
68248;SHT30;55064;49.636;12.164;2023-06-14T09:42:25;19.74;48.92
68248;SHT30;55064;49.636;12.164;2023-06-14T09:44:54;19.98;49.96
68248;SHT30;55064;49.636;12.164;2023-06-14T09:47:20;19.91;48.89
68248;SHT30;55064;49.636;12.164;2023-06-14T09:49:46;19.71;48.41
68248;SHT30;55064;49.636;12.164;2023-06-14T09:52:15;20.00;48.66
68248;SHT30;55064;49.636;12.164;2023-06-14T09:54:45;20.95;47.00
68248;SHT30;55064;49.636;12.164;2023-06-14T09:57:15;21.10;47.22
68248;SHT30;55064;49.636;12.164;2023-06-14T09:59:46;20.45;46.98
68248;SHT30;55064;49.636;12.164;2023-06-14T10:02:24;20.45;48.53
68248;SHT30;55064;49.636;12.164;2023-06-14T10:04:56;19.69;48.05
68248;SHT30;55064;49.636;12.164;2023-06-14T10:07:26;20.53;48.88
68248;SHT30;55064;49.636;12.164;2023-06-14T10:09:55;21.17;47.18
68248;SHT30;55064;49.636;12.164;2023-06-14T10:12:20;21.34;45.25
68248;SHT30;55064;49.636;12.164;2023-06-14T10:14:49;21.76;45.09
68248;SHT30;55064;49.636;12.164;2023-06-14T10:17:31;21.65;43.65
68248;SHT30;55064;49.636;12.164;2023-06-14T10:22:58;22.65;41.76
68248;SHT30;55064;49.636;12.164;2023-06-14T10:25:31;22.35;42.75
68248;SHT30;55064;49.636;12.164;2023-06-14T10:33:34;22.56;43.05
68248;SHT30;55064;49.636;12.164;2023-06-14T10:36:31;21.12;43.76
68248;SHT30;55064;49.636;12.164;2023-06-14T10:39:14;21.31;43.58
68248;SHT30;55064;49.636;12.164;2023-06-14T10:41:40;22.28;43.04
68248;SHT30;55064;49.636;12.164;2023-06-14T10:46:55;21.49;42.46
68248;SHT30;55064;49.636;12.164;2023-06-14T10:49:42;22.63;41.42
68248;SHT30;55064;49.636;12.164;2023-06-14T10:52:11;21.97;42.51
68248;SHT30;55064;49.636;12.164;2023-06-14T10:55:05;21.67;43.94
68248;SHT30;55064;49.636;12.164;2023-06-14T10:57:32;21.77;43.88
68248;SHT30;55064;49.636;12.164;2023-06-14T10:59:59;21.66;43.14
68248;SHT30;55064;49.636;12.164;2023-06-14T11:05:08;23.20;39.32
68248;SHT30;55064;49.636;12.164;2023-06-14T11:12:49;22.56;42.01
68248;SHT30;55064;49.636;12.164;2023-06-14T11:15:17;22.07;43.13
68248;SHT30;55064;49.636;12.164;2023-06-14T11:17:52;21.79;43.50
68248;SHT30;55064;49.636;12.164;2023-06-14T11:20:20;21.79;43.86
68248;SHT30;55064;49.636;12.164;2023-06-14T11:22:49;22.04;42.17
68248;SHT30;55064;49.636;12.164;2023-06-14T11:25:15;22.32;42.26
68248;SHT30;55064;49.636;12.164;2023-06-14T11:27:45;23.17;40.64
68248;SHT30;55064;49.636;12.164;2023-06-14T11:30:11;23.73;40.07
68248;SHT30;55064;49.636;12.164;2023-06-14T11:32:37;24.24;39.14
68248;SHT30;55064;49.636;12.164;2023-06-14T11:35:04;23.47;39.78
68248;SHT30;55064;49.636;12.164;2023-06-14T11:37:32;23.10;39.58
68248;SHT30;55064;49.636;12.164;2023-06-14T11:40:00;22.73;39.95
68248;SHT30;55064;49.636;12.164;2023-06-14T11:42:28;22.58;40.68
68248;SHT30;55064;49.636;12.164;2023-06-14T11:44:57;22.65;41.20
68248;SHT30;55064;49.636;12.164;2023-06-14T11:47:22;21.94;42.42
68248;SHT30;55064;49.636;12.164;2023-06-14T11:49:48;21.70;43.02
68248;SHT30;55064;49.636;12.164;2023-06-14T11:52:16;21.39;43.64
68248;SHT30;55064;49.636;12.164;2023-06-14T11:54:43;21.56;43.06
68248;SHT30;55064;49.636;12.164;2023-06-14T11:57:09;21.43;43.04
68248;SHT30;55064;49.636;12.164;2023-06-14T11:59:39;21.32;43.54
68248;SHT30;55064;49.636;12.164;2023-06-14T12:02:07;21.76;43.13
68248;SHT30;55064;49.636;12.164;2023-06-14T12:04:34;21.92;41.42
68248;SHT30;55064;49.636;12.164;2023-06-14T12:07:09;21.69;42.47
68248;SHT30;55064;49.636;12.164;2023-06-14T12:09:41;21.45;43.07
68248;SHT30;55064;49.636;12.164;2023-06-14T12:12:12;21.80;43.08
68248;SHT30;55064;49.636;12.164;2023-06-14T12:14:41;21.43;43.43
68248;SHT30;55064;49.636;12.164;2023-06-14T12:17:07;21.46;42.89
68248;SHT30;55064;49.636;12.164;2023-06-14T12:19:32;21.14;43.49
68248;SHT30;55064;49.636;12.164;2023-06-14T12:22:03;21.22;43.82
68248;SHT30;55064;49.636;12.164;2023-06-14T12:24:32;21.35;44.09
68248;SHT30;55064;49.636;12.164;2023-06-14T12:26:59;21.22;44.23
68248;SHT30;55064;49.636;12.164;2023-06-14T12:29:25;21.35;44.29
68248;SHT30;55064;49.636;12.164;2023-06-14T12:31:51;21.53;43.81
68248;SHT30;55064;49.636;12.164;2023-06-14T12:34:16;21.32;44.14
68248;SHT30;55064;49.636;12.164;2023-06-14T12:36:41;20.93;44.51
68248;SHT30;55064;49.636;12.164;2023-06-14T12:39:10;21.00;44.45
68248;SHT30;55064;49.636;12.164;2023-06-14T12:41:38;20.91;44.50
68248;SHT30;55064;49.636;12.164;2023-06-14T12:44:03;20.93;44.75
68248;SHT30;55064;49.636;12.164;2023-06-14T12:46:31;20.93;44.54
68248;SHT30;55064;49.636;12.164;2023-06-14T12:49:01;21.04;44.58
68248;SHT30;55064;49.636;12.164;2023-06-14T12:51:26;20.97;44.27
68248;SHT30;55064;49.636;12.164;2023-06-14T12:53:52;21.20;44.08
68248;SHT30;55064;49.636;12.164;2023-06-14T12:56:17;21.45;44.01
68248;SHT30;55064;49.636;12.164;2023-06-14T12:58:43;21.50;43.05
68248;SHT30;55064;49.636;12.164;2023-06-14T13:01:08;21.48;43.37
68248;SHT30;55064;49.636;12.164;2023-06-14T13:03:33;21.42;43.12
68248;SHT30;55064;49.636;12.164;2023-06-14T13:06:00;21.46;43.48
68248;SHT30;55064;49.636;12.164;2023-06-14T13:08:26;21.80;43.17
68248;SHT30;55064;49.636;12.164;2023-06-14T13:10:52;21.66;42.68
68248;SHT30;55064;49.636;12.164;2023-06-14T13:13:18;21.69;43.29
68248;SHT30;55064;49.636;12.164;2023-06-14T13:15:43;21.79;42.93
68248;SHT30;55064;49.636;12.164;2023-06-14T13:18:09;21.86;42.56
68248;SHT30;55064;49.636;12.164;2023-06-14T13:20:34;21.28;44.41
68248;SHT30;55064;49.636;12.164;2023-06-14T13:23:00;21.42;44.74
68248;SHT30;55064;49.636;12.164;2023-06-14T13:25:27;21.34;45.02
68248;SHT30;55064;49.636;12.164;2023-06-14T13:27:58;21.59;45.29
68248;SHT30;55064;49.636;12.164;2023-06-14T13:30:23;21.34;44.74
68248;SHT30;55064;49.636;12.164;2023-06-14T13:32:48;21.48;44.74
68248;SHT30;55064;49.636;12.164;2023-06-14T13:35:14;21.48;44.12
68248;SHT30;55064;49.636;12.164;2023-06-14T13:37:40;21.69;44.18
68248;SHT30;55064;49.636;12.164;2023-06-14T13:40:06;21.73;43.43
68248;SHT30;55064;49.636;12.164;2023-06-14T13:42:32;21.56;43.56
68248;SHT30;55064;49.636;12.164;2023-06-14T13:44:59;21.70;43.74
68248;SHT30;55064;49.636;12.164;2023-06-14T13:47:25;21.70;43.27
68248;SHT30;55064;49.636;12.164;2023-06-14T13:49:50;21.67;42.59
68248;SHT30;55064;49.636;12.164;2023-06-14T13:52:16;21.62;42.18
68248;SHT30;55064;49.636;12.164;2023-06-14T13:54:43;21.52;42.26
68248;SHT30;55064;49.636;12.164;2023-06-14T13:57:11;21.56;42.84
68248;SHT30;55064;49.636;12.164;2023-06-14T13:59:39;21.59;43.26
68248;SHT30;55064;49.636;12.164;2023-06-14T14:02:06;22.30;41.99
68248;SHT30;55064;49.636;12.164;2023-06-14T14:04:34;22.47;39.66
68248;SHT30;55064;49.636;12.164;2023-06-14T14:07:05;22.83;40.96
68248;SHT30;55064;49.636;12.164;2023-06-14T14:09:32;23.07;40.13
68248;SHT30;55064;49.636;12.164;2023-06-14T14:12:02;23.40;39.00
68248;SHT30;55064;49.636;12.164;2023-06-14T14:14:28;23.65;39.07
68248;SHT30;55064;49.636;12.164;2023-06-14T14:16:54;23.47;38.84
68248;SHT30;55064;49.636;12.164;2023-06-14T14:19:21;23.45;39.40
68248;SHT30;55064;49.636;12.164;2023-06-14T14:21:47;23.51;38.11
68248;SHT30;55064;49.636;12.164;2023-06-14T14:24:12;23.44;38.08
68248;SHT30;55064;49.636;12.164;2023-06-14T14:26:39;22.86;38.62
68248;SHT30;55064;49.636;12.164;2023-06-14T14:29:06;22.76;39.23
68248;SHT30;55064;49.636;12.164;2023-06-14T14:31:31;23.25;39.03
68248;SHT30;55064;49.636;12.164;2023-06-14T14:33:58;23.49;38.99
68248;SHT30;55064;49.636;12.164;2023-06-14T14:36:23;23.66;38.52
68248;SHT30;55064;49.636;12.164;2023-06-14T14:38:49;23.90;38.83
68248;SHT30;55064;49.636;12.164;2023-06-14T14:41:17;23.54;39.47
68248;SHT30;55064;49.636;12.164;2023-06-14T14:43:42;22.99;38.95
68248;SHT30;55064;49.636;12.164;2023-06-14T14:46:07;22.55;40.09
68248;SHT30;55064;49.636;12.164;2023-06-14T14:48:34;22.10;41.59
68248;SHT30;55064;49.636;12.164;2023-06-14T14:50:59;22.01;42.25
68248;SHT30;55064;49.636;12.164;2023-06-14T14:53:24;21.89;42.57
68248;SHT30;55064;49.636;12.164;2023-06-14T14:55:51;22.01;43.50
68248;SHT30;55064;49.636;12.164;2023-06-14T14:58:19;21.82;43.75
68248;SHT30;55064;49.636;12.164;2023-06-14T15:00:45;21.93;43.45
68248;SHT30;55064;49.636;12.164;2023-06-14T15:03:11;21.67;43.63
68248;SHT30;55064;49.636;12.164;2023-06-14T15:05:39;21.63;43.25
68248;SHT30;55064;49.636;12.164;2023-06-14T15:08:26;21.50;43.21
68248;SHT30;55064;49.636;12.164;2023-06-14T15:11:05;21.59;43.67
68248;SHT30;55064;49.636;12.164;2023-06-14T15:13:39;21.28;42.97
68248;SHT30;55064;49.636;12.164;2023-06-14T15:16:12;21.55;43.02
68248;SHT30;55064;49.636;12.164;2023-06-14T15:18:39;21.25;42.84
68248;SHT30;55064;49.636;12.164;2023-06-14T15:21:41;21.42;42.51
68248;SHT30;55064;49.636;12.164;2023-06-14T15:30:13;21.52;42.39
68248;SHT30;55064;49.636;12.164;2023-06-14T15:32:48;21.60;42.03
68248;SHT30;55064;49.636;12.164;2023-06-14T15:35:17;21.96;41.56
68248;SHT30;55064;49.636;12.164;2023-06-14T15:41:06;22.59;39.66
68248;SHT30;55064;49.636;12.164;2023-06-14T15:43:45;22.87;38.72
68248;SHT30;55064;49.636;12.164;2023-06-14T15:46:10;23.04;38.27
68248;SHT30;55064;49.636;12.164;2023-06-14T15:48:43;22.70;37.68
68248;SHT30;55064;49.636;12.164;2023-06-14T15:51:24;22.59;37.41
68248;SHT30;55064;49.636;12.164;2023-06-14T15:53:57;22.48;37.58
68248;SHT30;55064;49.636;12.164;2023-06-14T15:56:46;22.11;38.17
68248;SHT30;55064;49.636;12.164;2023-06-14T16:15:11;23.11;38.46
68248;SHT30;55064;49.636;12.164;2023-06-14T16:17:46;23.02;38.18
68248;SHT30;55064;49.636;12.164;2023-06-14T16:20:26;22.83;37.97
68248;SHT30;55064;49.636;12.164;2023-06-14T16:22:52;22.22;39.87
68248;SHT30;55064;49.636;12.164;2023-06-14T16:25:29;21.97;40.77
68248;SHT30;55064;49.636;12.164;2023-06-14T16:31:05;21.52;42.15
68248;SHT30;55064;49.636;12.164;2023-06-14T16:33:40;21.35;41.67
68248;SHT30;55064;49.636;12.164;2023-06-14T16:36:05;21.24;42.02
68248;SHT30;55064;49.636;12.164;2023-06-14T16:38:46;21.27;42.45
68248;SHT30;55064;49.636;12.164;2023-06-14T16:41:31;21.21;42.35
68248;SHT30;55064;49.636;12.164;2023-06-14T16:43:57;21.24;42.72
68248;SHT30;55064;49.636;12.164;2023-06-14T16:49:48;21.14;42.55
68248;SHT30;55064;49.636;12.164;2023-06-14T16:52:28;21.07;42.38
68248;SHT30;55064;49.636;12.164;2023-06-14T16:54:55;21.11;42.50